Time;durP1;ratioP1;P1;durP2;ratioP2;P2;SDS_P1;SDS_P2;PMS_P1;PMS_P2;Temp;Humidity;BMP_temperature;BMP_pressure;BME280_temperature;BME280_humidity;BME280_pressure;Samples;Min_cycle;Max_cycle;Signal;HPM_P1;HPM_P2
2022/05/28 00:05:32;;;;;;;9.27;0.73;;;11.90;99.90;;;;;;20709765;28;20037;-42
2022/05/28 00:15:33;;;;;;;2.05;0.85;;;11.90;99.90;;;;;;20713435;28;20069;-43
2022/05/28 00:25:34;;;;;;;2.00;0.73;;;11.80;99.90;;;;;;20710511;28;20030;-43
2022/05/28 00:35:36;;;;;;;2.20;1.13;;;11.80;99.90;;;;;;20708873;28;20037;-43
2022/05/28 00:45:37;;;;;;;1.63;0.55;;;11.80;99.90;;;;;;20712190;28;20544;-43
2022/05/28 00:55:38;;;;;;;3.03;1.15;;;11.90;99.90;;;;;;20715871;28;20060;-43
2022/05/28 01:05:45;;;;;;;1.67;0.88;;;12.00;99.90;;;;;;20717398;28;20680;-43
2022/05/28 01:15:53;;;;;;;2.08;0.70;;;12.00;99.90;;;;;;20718399;28;20037;-43
2022/05/28 01:26:03;;;;;;;8.48;2.20;;;12.00;99.90;;;;;;20731097;28;20041;-43
2022/05/28 01:36:06;;;;;;;3.13;1.42;;;12.00;99.90;;;;;;20739763;28;20476;-43
2022/05/28 01:46:09;;;;;;;3.90;1.20;;;12.00;99.90;;;;;;20739100;28;20056;-43
2022/05/28 01:56:11;;;;;;;2.88;0.80;;;11.90;99.90;;;;;;20666903;28;20401;-42
2022/05/28 02:06:12;;;;;;;1.63;0.80;;;11.90;99.90;;;;;;20655397;28;20049;-42
2022/05/28 02:16:21;;;;;;;3.50;1.15;;;11.90;99.90;;;;;;20655552;28;20045;-43
2022/05/28 02:26:31;;;;;;;2.25;1.05;;;11.90;99.90;;;;;;20666827;28;20045;-43
2022/05/28 02:36:32;;;;;;;5.45;0.90;;;11.90;99.90;;;;;;20650441;28;20046;-43
2022/05/28 02:46:35;;;;;;;9.85;0.70;;;11.90;99.90;;;;;;20644758;28;20133;-43
2022/05/28 02:56:36;;;;;;;1.42;0.45;;;11.80;99.90;;;;;;20712054;28;20522;-43
2022/05/28 03:06:37;;;;;;;0.90;0.40;;;11.70;99.90;;;;;;20719718;28;20029;-43
2022/05/28 03:16:39;;;;;;;2.00;0.50;;;11.60;99.90;;;;;;20698822;28;20442;-43
2022/05/28 03:26:40;;;;;;;1.60;0.57;;;11.50;99.90;;;;;;20718833;28;20042;-43
2022/05/28 03:36:42;;;;;;;0.95;0.20;;;11.40;99.90;;;;;;20714318;28;20072;-42
2022/05/28 03:46:43;;;;;;;0.68;0.40;;;11.30;99.90;;;;;;20725590;28;20173;-43
2022/05/28 03:56:45;;;;;;;0.80;0.40;;;11.20;99.90;;;;;;20718336;28;20057;-43
2022/05/28 04:06:46;;;;;;;1.80;0.45;;;11.20;99.90;;;;;;20703815;28;20037;-43
2022/05/28 04:16:48;;;;;;;0.35;0.20;;;11.10;99.90;;;;;;20709117;28;20056;-43
2022/05/28 04:26:49;;;;;;;1.70;0.30;;;11.10;99.90;;;;;;20705824;28;20056;-43
2022/05/28 04:36:50;;;;;;;2.25;0.20;;;11.10;99.90;;;;;;20698362;28;20329;-43
2022/05/28 04:46:51;;;;;;;1.10;0.30;;;11.10;99.90;;;;;;20712824;28;20045;-42
2022/05/28 04:56:52;;;;;;;0.88;0.40;;;11.30;99.90;;;;;;20709559;28;20057;-43
2022/05/28 05:06:53;;;;;;;1.40;0.40;;;11.50;99.90;;;;;;20696753;28;20042;-43
2022/05/28 05:16:55;;;;;;;2.28;0.20;;;11.60;99.90;;;;;;20709486;28;20208;-43
2022/05/28 05:26:56;;;;;;;1.45;0.43;;;11.90;99.90;;;;;;20720998;28;20041;-43
2022/05/28 05:36:58;;;;;;;1.33;0.25;;;12.30;99.90;;;;;;20711153;28;20054;-43
2022/05/28 05:46:59;;;;;;;1.23;0.60;;;12.70;99.90;;;;;;20713238;28;20057;-43
2022/05/28 05:57:00;;;;;;;1.95;0.30;;;13.10;99.90;;;;;;20706482;28;20053;-43
2022/05/28 06:07:05;;;;;;;1.33;0.40;;;13.40;99.90;;;;;;20710890;28;20045;-43
2022/05/28 06:17:06;;;;;;;1.77;0.85;;;13.50;99.90;;;;;;20719269;28;20638;-43
2022/05/28 06:27:07;;;;;;;1.23;0.40;;;13.70;99.90;;;;;;20727351;28;20404;-43
2022/05/28 06:37:09;;;;;;;2.17;0.40;;;13.80;99.90;;;;;;20676219;28;20129;-43
2022/05/28 06:47:10;;;;;;;1.60;0.30;;;14.00;99.90;;;;;;20699324;28;20080;-43
2022/05/28 06:57:11;;;;;;;1.02;0.38;;;14.20;99.90;;;;;;20675949;28;20095;-43
2022/05/28 07:07:12;;;;;;;2.60;1.17;;;14.20;99.90;;;;;;20691426;28;20453;-43
2022/05/28 07:17:13;;;;;;;1.02;0.47;;;14.40;99.90;;;;;;20688311;28;20453;-43
2022/05/28 07:27:14;;;;;;;1.05;0.30;;;14.50;99.90;;;;;;20697106;28;20080;-42
2022/05/28 07:37:15;;;;;;;1.20;0.35;;;14.30;99.90;;;;;;20713595;28;20148;-43
2022/05/28 07:47:18;;;;;;;2.63;1.02;;;14.30;99.90;;;;;;20712311;28;20042;-43
2022/05/28 07:57:19;;;;;;;0.77;0.22;;;14.40;99.90;;;;;;20637271;28;20056;-43
2022/05/28 08:07:20;;;;;;;0.63;0.22;;;14.40;99.90;;;;;;20642934;28;20041;-43
2022/05/28 08:17:21;;;;;;;0.32;0.15;;;14.40;99.90;;;;;;20643489;28;20542;-43
2022/05/28 08:27:22;;;;;;;2.63;0.40;;;14.30;99.90;;;;;;20647441;28;20629;-43
2022/05/28 08:37:24;;;;;;;1.05;0.20;;;14.40;99.90;;;;;;20647284;28;20149;-43
2022/05/28 08:47:32;;;;;;;13.65;0.70;;;14.70;99.90;;;;;;20640811;28;20045;-43
2022/05/28 08:57:59;;;;;;;1.83;0.50;;;15.00;99.90;;;;;;20676895;28;20053;-43
2022/05/28 09:08:03;;;;;;;0.88;0.35;;;15.30;99.90;;;;;;20716827;28;20331;-43
2022/05/28 09:18:06;;;;;;;6.43;0.40;;;15.20;99.90;;;;;;20734998;28;20049;-43
2022/05/28 09:28:29;;;;;;;2.28;0.85;;;15.30;99.90;;;;;;20725190;28;20429;-43
2022/05/28 09:38:47;;;;;;;1.08;0.30;;;15.50;99.90;;;;;;20729737;28;20453;-43
2022/05/28 09:49:14;;;;;;;2.05;0.60;;;15.40;99.90;;;;;;20751729;28;20765;-43
2022/05/28 09:59:37;;;;;;;0.80;0.25;;;15.40;99.90;;;;;;20738291;28;20133;-43
2022/05/28 10:09:53;;;;;;;0.47;0.30;;;15.80;99.90;;;;;;20738869;28;20512;-43
2022/05/28 10:19:56;;;;;;;0.93;0.30;;;15.70;99.90;;;;;;20725339;28;20049;-43
2022/05/28 10:30:02;;;;;;;0.32;0.20;;;16.00;99.90;;;;;;20726285;28;20582;-43
2022/05/28 10:40:25;;;;;;;2.70;0.60;;;15.90;99.90;;;;;;20723588;28;20049;-43
2022/05/28 10:50:55;;;;;;;0.95;0.32;;;16.30;99.90;;;;;;20740023;28;20440;-43
2022/05/28 11:01:30;;;;;;;4.13;0.65;;;16.30;99.90;;;;;;20715217;28;20475;-43
2022/05/28 11:12:03;;;;;;;0.32;0.20;;;16.40;99.90;;;;;;20680252;28;20052;-43
2022/05/28 11:22:37;;;;;;;1.13;0.40;;;16.40;99.90;;;;;;20723828;28;20684;-43
2022/05/28 11:32:48;;;;;;;1.65;0.55;;;16.60;99.90;;;;;;20689521;28;20045;-43
2022/05/28 11:43:08;;;;;;;1.00;0.45;;;16.80;99.90;;;;;;20718237;28;20053;-43
2022/05/28 11:53:22;;;;;;;2.88;0.95;;;16.70;99.90;;;;;;20636266;28;20052;-43
2022/05/28 12:03:28;;;;;;;1.17;0.45;;;16.30;99.90;;;;;;20637754;28;20061;-43
2022/05/28 12:13:45;;;;;;;1.38;0.52;;;16.70;99.90;;;;;;20632587;28;20038;-43
2022/05/28 12:23:46;;;;;;;0.82;0.40;;;17.20;99.90;;;;;;20631948;28;20185;-43
2022/05/28 12:33:55;;;;;;;0.40;0.20;;;16.60;99.90;;;;;;20639895;28;20249;-43
2022/05/28 12:44:17;;;;;;;1.17;0.35;;;16.80;99.90;;;;;;20626972;28;20053;-43
2022/05/28 12:54:31;;;;;;;0.90;0.30;;;17.00;99.90;;;;;;20696940;28;20080;-43
2022/05/28 13:04:40;;;;;;;1.10;0.40;;;16.80;99.90;;;;;;20724397;28;21538;-43
2022/05/28 13:15:10;;;;;;;2.28;0.95;;;17.00;99.90;;;;;;20720671;28;20118;-43
2022/05/28 13:25:42;;;;;;;2.03;0.52;;;16.90;99.90;;;;;;20714241;28;21686;-43
2022/05/28 13:35:49;;;;;;;1.20;0.40;;;16.20;99.90;;;;;;20721935;28;20042;-43
2022/05/28 13:45:58;;;;;;;1.57;0.60;;;16.40;99.90;;;;;;20712394;28;20053;-43
2022/05/28 13:56:02;;;;;;;2.92;0.63;;;17.00;99.90;;;;;;20729398;28;20563;-43
2022/05/28 14:06:13;;;;;;;2.78;0.77;;;17.20;99.90;;;;;;20725074;28;20057;-43
2022/05/28 14:16:35;;;;;;;1.30;0.40;;;17.40;99.90;;;;;;20713742;28;20297;-43
2022/05/28 14:26:36;;;;;;;1.67;0.73;;;17.00;99.90;;;;;;20734602;28;21380;-43
2022/05/28 14:36:49;;;;;;;0.93;0.40;;;16.80;99.90;;;;;;20739217;28;20065;-43
2022/05/28 14:46:52;;;;;;;2.50;0.57;;;16.10;99.90;;;;;;20740946;28;20037;-43
2022/05/28 14:56:53;;;;;;;1.00;0.20;;;16.00;99.90;;;;;;20735299;28;20057;-43
2022/05/28 15:07:03;;;;;;;1.73;0.50;;;15.60;99.90;;;;;;20729530;28;20535;-43
2022/05/28 15:17:08;;;;;;;2.67;0.73;;;15.90;99.90;;;;;;20732540;28;20152;-43
2022/05/28 15:27:10;;;;;;;1.13;0.40;;;16.20;99.90;;;;;;20727850;28;20034;-43
2022/05/28 15:47:31;;;;;;;3.47;0.40;;;16.10;99.90;;;;;;20715873;28;21569;-43
2022/05/28 15:57:41;;;;;;;0.40;0.13;;;16.20;99.90;;;;;;20729144;28;20148;-43
2022/05/28 16:07:42;;;;;;;0.88;0.25;;;16.50;99.90;;;;;;20717135;28;20037;-43
2022/05/28 16:17:43;;;;;;;6.00;0.40;;;16.10;99.90;;;;;;20720684;28;20081;-43
2022/05/28 16:27:44;;;;;;;1.63;0.55;;;16.00;99.90;;;;;;20720030;28;20042;-45
2022/05/28 16:37:45;;;;;;;1.38;0.38;;;15.60;99.90;;;;;;20725875;28;20413;-43
2022/05/28 16:47:46;;;;;;;1.00;0.50;;;15.00;99.90;;;;;;20718733;28;20065;-43
2022/05/28 16:57:48;;;;;;;1.13;0.35;;;14.70;99.90;;;;;;20709193;28;20050;-42
2022/05/28 17:07:49;;;;;;;0.68;0.30;;;14.50;99.90;;;;;;20690355;28;20056;-43
2022/05/28 17:17:51;;;;;;;1.58;0.55;;;14.40;99.90;;;;;;20724045;28;20049;-43
2022/05/28 17:27:53;;;;;;;1.90;0.40;;;14.40;99.90;;;;;;20709200;28;20042;-42
2022/05/28 17:37:54;;;;;;;4.20;1.13;;;14.70;99.90;;;;;;20706452;28;21133;-43
2022/05/28 17:47:57;;;;;;;2.22;0.30;;;14.40;99.90;;;;;;20731159;28;20414;-43
2022/05/28 17:57:58;;;;;;;0.77;0.50;;;14.20;99.90;;;;;;20725988;28;20057;-43
2022/05/28 18:08:00;;;;;;;2.08;0.50;;;14.00;99.90;;;;;;20722240;28;20587;-42
2022/05/28 18:18:04;;;;;;;0.80;0.45;;;13.30;99.90;;;;;;20741188;28;20296;-42
2022/05/28 18:28:05;;;;;;;0.70;0.20;;;12.70;99.90;;;;;;20731967;28;20477;-42
2022/05/28 18:38:06;;;;;;;0.55;0.30;;;12.50;99.90;;;;;;20734055;28;20041;-43
2022/05/28 18:48:08;;;;;;;0.85;0.25;;;12.40;99.90;;;;;;20722272;28;20045;-42
2022/05/28 18:58:10;;;;;;;1.38;0.30;;;12.40;99.90;;;;;;20727717;28;20105;-43
2022/05/28 19:08:15;;;;;;;0.80;0.30;;;12.30;99.90;;;;;;20724307;28;20041;-42
2022/05/28 19:18:19;;;;;;;2.08;0.95;;;12.20;99.90;;;;;;20730838;28;20050;-43
2022/05/28 19:28:21;;;;;;;1.42;0.40;;;12.30;99.90;;;;;;20717875;28;20038;-42
2022/05/28 19:38:22;;;;;;;1.35;0.73;;;12.20;99.90;;;;;;20715134;28;20045;-42
2022/05/28 19:48:25;;;;;;;2.13;0.73;;;12.10;99.90;;;;;;20722697;28;20042;-42
2022/05/28 19:58:27;;;;;;;0.98;0.32;;;12.00;99.90;;;;;;20732481;28;20053;-42
2022/05/28 20:08:28;;;;;;;4.43;0.98;;;11.90;99.90;;;;;;20729639;28;20045;-43
2022/05/28 20:18:29;;;;;;;2.33;0.70;;;11.90;99.90;;;;;;20727214;28;20060;-42
2022/05/28 20:28:31;;;;;;;0.88;0.43;;;11.60;99.90;;;;;;20722290;28;20784;-42
2022/05/28 20:38:32;;;;;;;0.55;0.20;;;11.30;99.90;;;;;;20722073;28;20050;-42
2022/05/28 20:48:45;;;;;;;0.73;0.30;;;11.10;99.90;;;;;;20730549;28;20058;-42
2022/05/28 20:58:46;;;;;;;0.68;0.30;;;11.00;99.90;;;;;;20718225;28;20030;-42
2022/05/28 21:08:48;;;;;;;0.85;0.28;;;10.90;99.90;;;;;;20718460;28;20034;-42
2022/05/28 21:18:50;;;;;;;1.60;0.55;;;10.80;99.90;;;;;;20732310;28;20068;-42
2022/05/28 21:39:13;;;;;;;1.23;0.70;;;10.60;99.90;;;;;;20695332;28;20061;-42
2022/05/28 21:49:14;;;;;;;2.72;0.57;;;10.50;99.90;;;;;;20713432;28;20398;-42
2022/05/28 21:59:16;;;;;;;1.08;0.40;;;10.60;99.90;;;;;;20746087;28;20052;-43
2022/05/28 22:09:18;;;;;;;1.95;0.65;;;10.60;99.90;;;;;;20739616;28;20029;-43
2022/05/28 22:19:22;;;;;;;2.63;0.98;;;10.40;99.90;;;;;;20744586;28;20133;-43
2022/05/28 22:29:24;;;;;;;1.60;0.50;;;10.40;99.90;;;;;;20706950;28;20480;-43
2022/05/28 22:39:25;;;;;;;1.48;0.70;;;10.20;99.90;;;;;;20738092;28;20117;-43
2022/05/28 22:49:27;;;;;;;1.58;0.75;;;10.10;99.90;;;;;;20708076;28;20080;-43
2022/05/28 22:59:28;;;;;;;1.63;0.68;;;10.10;99.90;;;;;;20741868;28;20045;-43
2022/05/28 23:09:30;;;;;;;3.25;0.50;;;10.00;99.90;;;;;;20716448;28;20339;-43
2022/05/28 23:19:31;;;;;;;1.15;0.43;;;10.00;99.90;;;;;;20728174;28;20405;-43
2022/05/28 23:29:32;;;;;;;1.48;0.40;;;10.00;99.90;;;;;;20708818;28;20354;-43
2022/05/28 23:39:33;;;;;;;3.78;1.40;;;10.00;99.90;;;;;;20730565;28;20359;-43
2022/05/28 23:49:40;;;;;;;3.72;0.70;;;10.00;99.90;;;;;;20703662;28;20050;-43
2022/05/28 23:59:42;;;;;;;0.88;0.40;;;10.00;99.90;;;;;;20718604;28;20057;-43
